createdAt,value
2018-12-01T00:00:47.584Z,40.53
2018-12-01T00:03:15.699Z,38.07
2018-12-01T00:05:43.853Z,46.00
2018-12-01T00:08:11.967Z,36.63
2018-12-01T00:10:40.095Z,38.07
2018-12-01T00:13:08.232Z,40.97
2018-12-01T00:15:38.052Z,41.90
2018-12-01T00:18:06.257Z,37.70
2018-12-01T00:20:35.464Z,43.10
2018-12-01T00:23:03.599Z,41.03
2018-12-01T00:25:31.707Z,37.93
2018-12-01T00:27:59.856Z,38.47
2018-12-01T00:30:27.991Z,39.60
2018-12-01T00:32:56.370Z,38.00
2018-12-01T00:35:24.498Z,40.67
2018-12-01T00:37:52.626Z,42.67
2018-12-01T00:40:21.147Z,41.43
2018-12-01T00:42:49.282Z,38.63
2018-12-01T00:45:18.878Z,36.23
2018-12-01T00:47:47.534Z,40.93
2018-12-01T00:50:16.234Z,40.43
2018-12-01T00:52:44.672Z,36.13
2018-12-01T00:55:13.306Z,40.13
2018-12-01T00:57:41.418Z,41.53
2018-12-01T01:00:11.285Z,41.17
2018-12-01T01:02:39.406Z,41.57
2018-12-01T01:05:07.530Z,38.07
2018-12-01T01:07:35.673Z,36.53
2018-12-01T01:10:04.316Z,42.63
2018-12-01T01:12:32.415Z,40.57
2018-12-01T01:15:00.482Z,42.23
2018-12-01T01:17:28.612Z,38.30
2018-12-01T01:19:56.709Z,37.37
2018-12-01T01:22:24.844Z,38.80
2018-12-01T01:24:52.952Z,37.10
2018-12-01T01:27:21.109Z,35.93
2018-12-01T01:29:49.221Z,41.03
2018-12-01T01:32:17.418Z,37.33
2018-12-01T01:34:45.523Z,36.87
2018-12-01T01:37:13.659Z,37.97
2018-12-01T01:39:41.748Z,41.97
2018-12-01T01:42:09.899Z,39.37
2018-12-01T01:44:38.042Z,40.67
2018-12-01T01:47:06.153Z,38.30
2018-12-01T01:49:34.298Z,36.53
2018-12-01T01:52:02.417Z,46.33
2018-12-01T01:54:30.538Z,38.93
2018-12-01T01:56:58.697Z,37.70
2018-12-01T01:59:26.817Z,39.50
2018-12-01T02:01:55.013Z,42.77
2018-12-01T02:04:23.108Z,38.47
2018-12-01T02:06:51.227Z,41.10
2018-12-01T02:09:19.353Z,42.80
2018-12-01T02:11:47.481Z,40.63
2018-12-01T02:14:15.571Z,44.50
2018-12-01T02:16:43.702Z,41.07
2018-12-01T02:19:11.906Z,40.87
2018-12-01T02:21:40.014Z,41.97
2018-12-01T02:24:08.165Z,40.20
2018-12-01T02:26:36.281Z,39.00
2018-12-01T02:29:04.467Z,38.63
2018-12-01T02:31:32.594Z,42.60
2018-12-01T02:34:00.719Z,38.67
2018-12-01T02:36:28.836Z,42.90
2018-12-01T02:38:56.952Z,41.73
2018-12-01T02:41:25.078Z,39.20
2018-12-01T02:46:03.419Z,40.80
2018-12-01T02:48:31.552Z,37.30
2018-12-01T02:50:59.663Z,39.37
2018-12-01T02:53:27.779Z,41.77
2018-12-01T02:55:55.874Z,41.43
2018-12-01T02:58:24.003Z,38.33
2018-12-01T03:00:52.143Z,40.73
2018-12-01T03:03:20.273Z,40.43
2018-12-01T03:05:48.389Z,39.77
2018-12-01T03:08:16.513Z,42.53
2018-12-01T03:10:44.617Z,42.73
2018-12-01T03:13:12.727Z,43.67
2018-12-01T03:15:40.831Z,42.63
2018-12-01T03:18:13.479Z,41.53
2018-12-01T03:20:37.123Z,37.63
2018-12-01T03:23:05.335Z,36.90
2018-12-01T03:25:33.459Z,44.93
2018-12-01T03:28:01.699Z,43.97
2018-12-01T03:30:29.822Z,45.73
2018-12-01T03:32:57.971Z,43.77
2018-12-01T03:35:26.081Z,43.43
2018-12-01T03:37:54.267Z,40.43
2018-12-01T03:40:22.584Z,41.43
2018-12-01T03:42:51.141Z,46.27
2018-12-01T03:45:19.874Z,43.40
2018-12-01T03:47:48.000Z,44.07
2018-12-01T03:50:23.527Z,43.23
2018-12-01T03:52:52.224Z,41.17
2018-12-01T03:55:25.854Z,41.73
2018-12-01T03:57:54.009Z,36.63
2018-12-01T04:00:26.085Z,44.60
2018-12-01T04:02:54.705Z,43.40
2018-12-01T04:05:22.873Z,39.03
2018-12-01T04:07:51.068Z,37.10
2018-12-01T04:10:19.205Z,40.67
2018-12-01T04:12:47.346Z,41.53
2018-12-01T04:15:15.484Z,41.30
2018-12-01T04:17:43.600Z,38.00
2018-12-01T04:20:11.730Z,39.77
2018-12-01T04:22:39.867Z,42.83
2018-12-01T04:25:08.392Z,46.73
2018-12-01T04:27:36.553Z,42.50
2018-12-01T04:30:07.889Z,41.40
2018-12-01T04:32:35.965Z,38.23
2018-12-01T04:35:04.101Z,40.60
2018-12-01T04:37:32.221Z,42.80
2018-12-01T04:40:00.325Z,38.90
2018-12-01T04:42:28.454Z,37.83
2018-12-01T04:44:56.617Z,38.57
2018-12-01T04:47:24.727Z,37.60
2018-12-01T04:49:52.849Z,40.90
2018-12-01T04:52:20.950Z,39.37
2018-12-01T04:54:49.112Z,42.83
2018-12-01T04:57:17.194Z,38.67
2018-12-01T04:59:45.282Z,42.67
2018-12-01T05:02:13.403Z,40.43
2018-12-01T05:04:41.550Z,40.40
2018-12-01T05:07:09.634Z,36.90
2018-12-01T05:09:37.790Z,43.00
2018-12-01T05:12:05.954Z,39.73
2018-12-01T05:14:34.083Z,41.57
2018-12-01T05:17:02.150Z,42.93
2018-12-01T05:19:30.262Z,42.77
2018-12-01T05:21:58.364Z,40.57
2018-12-01T05:24:26.488Z,40.10
2018-12-01T05:26:54.615Z,38.03
2018-12-01T05:29:22.750Z,39.63
2018-12-01T05:31:50.840Z,43.53
2018-12-01T05:34:18.963Z,41.20
2018-12-01T05:36:47.060Z,42.23
2018-12-01T05:39:15.184Z,40.73
2018-12-01T05:41:43.324Z,42.03
2018-12-01T05:44:11.495Z,41.00
2018-12-01T05:46:39.679Z,40.30
2018-12-01T05:49:07.802Z,40.27
2018-12-01T05:51:35.939Z,41.33
2018-12-01T05:54:04.027Z,39.20
2018-12-01T05:56:32.146Z,47.97
2018-12-01T05:59:00.287Z,50.50
2018-12-01T06:01:28.408Z,50.70
2018-12-01T06:03:56.529Z,56.33
2018-12-01T06:06:24.666Z,64.30
2018-12-01T06:08:53.647Z,68.87
2018-12-01T06:11:21.808Z,58.53
2018-12-01T06:13:49.926Z,56.57
2018-12-01T06:16:18.064Z,63.03
2018-12-01T06:18:46.183Z,61.87
2018-12-01T06:21:14.342Z,64.37
2018-12-01T06:23:42.452Z,60.47
2018-12-01T06:26:10.581Z,62.57
2018-12-01T06:28:38.685Z,60.10
2018-12-01T06:31:06.871Z,55.07
2018-12-01T06:33:35.033Z,51.47
2018-12-01T06:36:03.205Z,64.47
2018-12-01T06:38:31.377Z,59.83
2018-12-01T06:40:59.574Z,56.43
2018-12-01T06:43:27.845Z,53.13
2018-12-01T06:45:56.035Z,64.97
2018-12-01T06:48:24.247Z,60.53
2018-12-01T06:50:52.448Z,58.80
2018-12-01T06:53:20.679Z,61.37
2018-12-01T06:55:48.913Z,63.20
2018-12-01T06:58:17.184Z,64.63
2018-12-01T07:00:45.449Z,62.37
2018-12-01T07:03:13.669Z,56.13
2018-12-01T07:05:41.869Z,56.73
2018-12-01T07:08:10.092Z,64.77
2018-12-01T07:10:38.344Z,56.97
2018-12-01T07:13:07.659Z,52.97
2018-12-01T07:15:36.929Z,58.70
2018-12-01T07:18:10.407Z,50.37
2018-12-01T07:20:38.590Z,50.77
2018-12-01T07:23:06.855Z,55.93
2018-12-01T07:25:35.025Z,47.80
2018-12-01T07:28:03.239Z,51.97
2018-12-01T07:30:31.480Z,45.50
2018-12-01T07:32:59.714Z,48.30
2018-12-01T07:35:27.982Z,48.97
2018-12-01T07:37:56.273Z,46.13
2018-12-01T07:40:24.545Z,47.93
2018-12-01T07:42:52.725Z,45.87
2018-12-01T07:45:20.941Z,46.43
2018-12-01T07:47:49.117Z,44.27
2018-12-01T07:50:17.820Z,38.80
2018-12-01T07:52:47.807Z,48.67
2018-12-01T07:55:16.008Z,40.13
2018-12-01T07:57:44.227Z,38.90
2018-12-01T08:00:13.999Z,42.30
2018-12-01T08:02:42.698Z,42.30
2018-12-01T08:05:11.231Z,44.67
2018-12-01T08:07:39.454Z,44.67
2018-12-01T08:10:11.129Z,40.63
2018-12-01T08:12:39.486Z,46.93
2018-12-01T08:15:12.106Z,45.37
2018-12-01T08:17:40.359Z,42.67
2018-12-01T08:20:11.095Z,46.57
2018-12-01T08:22:39.415Z,44.63
2018-12-01T08:25:09.310Z,46.43
2018-12-01T08:27:37.474Z,52.17
2018-12-01T08:30:10.369Z,54.13
2018-12-01T08:32:38.588Z,49.67
2018-12-01T08:35:06.902Z,48.53
2018-12-01T08:37:35.245Z,48.03
2018-12-01T08:40:04.031Z,46.73
2018-12-01T08:42:32.232Z,45.50
2018-12-01T08:45:00.508Z,48.13
2018-12-01T08:47:28.866Z,47.03
2018-12-01T08:49:57.068Z,43.10
2018-12-01T08:52:25.244Z,44.87
2018-12-01T08:54:53.481Z,43.10
2018-12-01T08:57:21.576Z,41.60
2018-12-01T08:59:49.723Z,42.33
2018-12-01T09:02:18.058Z,40.63
2018-12-01T09:04:46.291Z,37.10
2018-12-01T09:07:14.487Z,36.20
2018-12-01T09:09:42.734Z,39.00
2018-12-01T09:12:11.156Z,33.87
2018-12-01T09:14:39.403Z,33.40
2018-12-01T09:17:07.571Z,33.97
2018-12-01T09:19:35.778Z,34.27
2018-12-01T09:22:03.984Z,31.20
2018-12-01T09:24:32.498Z,33.07
2018-12-01T09:27:00.758Z,32.30
2018-12-01T09:29:28.974Z,29.37
2018-12-01T09:31:57.310Z,32.77
2018-12-01T09:34:25.531Z,29.97
2018-12-01T09:36:53.848Z,26.13
2018-12-01T09:39:22.138Z,30.00
2018-12-01T09:41:50.464Z,30.57
2018-12-01T09:44:18.750Z,31.30
2018-12-01T09:46:46.949Z,29.13
2018-12-01T09:49:15.228Z,30.43
2018-12-01T09:51:43.466Z,30.30
2018-12-01T09:54:11.841Z,29.17
2018-12-01T09:56:40.234Z,26.87
2018-12-01T09:59:08.636Z,24.47
2018-12-01T10:01:36.991Z,25.63
2018-12-01T10:04:10.775Z,27.57
2018-12-01T10:06:41.136Z,27.10
2018-12-01T10:09:09.462Z,24.80
2018-12-01T10:11:37.685Z,24.83
2018-12-01T10:14:06.098Z,22.37
2018-12-01T10:16:34.395Z,27.13
2018-12-01T10:19:02.697Z,23.23
2018-12-01T10:21:30.872Z,25.83
2018-12-01T10:23:59.365Z,28.43
2018-12-01T10:26:27.614Z,24.20
2018-12-01T10:28:56.225Z,25.17
2018-12-01T10:31:24.436Z,25.13
2018-12-01T10:33:52.792Z,24.83
2018-12-01T10:36:21.003Z,23.13
2018-12-01T10:38:49.281Z,26.10
2018-12-01T10:41:17.495Z,22.20
2018-12-01T10:43:45.750Z,23.83
2018-12-01T10:46:14.052Z,21.83
2018-12-01T10:48:42.307Z,23.23
2018-12-01T10:51:10.564Z,20.93
2018-12-01T10:53:38.918Z,22.07
2018-12-01T10:56:07.190Z,23.33
2018-12-01T10:58:35.454Z,24.23
2018-12-01T11:01:09.138Z,20.73
2018-12-01T11:03:40.810Z,22.03
2018-12-01T11:06:09.937Z,21.57
2018-12-01T11:08:38.220Z,24.13
2018-12-01T11:11:06.700Z,22.93
2018-12-01T11:13:34.959Z,23.73
2018-12-01T11:16:03.538Z,21.40
2018-12-01T11:18:31.715Z,22.30
2018-12-01T11:20:59.975Z,21.90
2018-12-01T11:23:28.208Z,24.17
2018-12-01T11:25:56.438Z,23.73
2018-12-01T11:28:24.858Z,17.40
2018-12-01T11:30:53.115Z,20.03
2018-12-01T11:33:21.395Z,23.47
2018-12-01T11:35:49.630Z,18.83
2018-12-01T11:38:17.830Z,19.43
2018-12-01T11:40:46.078Z,14.60
2018-12-01T11:43:14.385Z,18.17
2018-12-01T11:45:42.698Z,18.77
2018-12-01T11:48:11.003Z,15.90
2018-12-01T11:50:39.699Z,14.20
2018-12-01T11:53:07.987Z,15.87
2018-12-01T11:55:36.246Z,18.43
2018-12-01T11:58:04.777Z,19.43
2018-12-01T12:00:33.162Z,17.87
2018-12-01T12:03:01.418Z,19.20
2018-12-01T12:05:29.668Z,19.53
2018-12-01T12:08:03.341Z,15.60
2018-12-01T12:10:31.655Z,18.03
2018-12-01T12:12:59.938Z,17.03
2018-12-01T12:15:28.250Z,19.07
2018-12-01T12:18:02.934Z,15.90
2018-12-01T12:20:31.356Z,17.77
2018-12-01T12:22:59.698Z,14.97
2018-12-01T12:25:28.076Z,15.77
2018-12-01T12:27:56.540Z,16.17
2018-12-01T12:30:26.098Z,15.00
2018-12-01T12:32:53.255Z,14.90
2018-12-01T12:35:21.697Z,14.57
2018-12-01T12:37:49.923Z,15.93
2018-12-01T12:40:18.781Z,16.37
2018-12-01T12:42:47.348Z,14.53
2018-12-01T12:45:15.608Z,16.00
2018-12-01T12:47:43.733Z,14.90
2018-12-01T12:50:13.483Z,21.00
2018-12-01T12:52:41.941Z,15.80
2018-12-01T12:55:11.500Z,13.93
2018-12-01T12:57:39.662Z,18.50
2018-12-01T13:02:55.626Z,14.73
2018-12-01T13:05:24.611Z,13.33
2018-12-01T13:07:52.757Z,15.47
2018-12-01T13:10:21.670Z,12.83
2018-12-01T13:12:49.865Z,12.37
2018-12-01T13:15:17.995Z,15.67
2018-12-01T13:17:46.295Z,13.77
2018-12-01T13:20:15.061Z,12.17
2018-12-01T13:22:43.260Z,18.47
2018-12-01T13:25:12.461Z,11.97
2018-12-01T13:27:42.344Z,12.23
2018-12-01T13:30:13.095Z,11.63
2018-12-01T13:32:41.743Z,13.07
2018-12-01T13:35:10.065Z,12.17
2018-12-01T13:37:38.234Z,10.67
2018-12-01T13:40:09.231Z,10.13
2018-12-01T13:42:37.374Z,11.47
2018-12-01T13:45:06.734Z,8.93
2018-12-01T13:47:35.091Z,10.67
2018-12-01T13:50:03.291Z,11.50
2018-12-01T13:52:31.466Z,10.87
2018-12-01T13:54:59.629Z,12.37
2018-12-01T13:57:27.890Z,11.00
2018-12-01T13:59:56.046Z,9.87
2018-12-01T14:02:24.200Z,11.90
2018-12-01T14:04:52.324Z,12.97
2018-12-01T14:07:20.450Z,12.73
2018-12-01T14:09:48.564Z,11.73
2018-12-01T14:12:16.757Z,14.93
2018-12-01T14:14:45.065Z,13.93
2018-12-01T14:17:13.195Z,12.67
2018-12-01T14:19:41.447Z,13.87
2018-12-01T14:22:09.646Z,13.33
2018-12-01T14:24:37.825Z,15.50
2018-12-01T14:27:05.975Z,12.73
2018-12-01T14:29:34.249Z,13.60
2018-12-01T14:32:02.414Z,13.50
2018-12-01T14:34:30.649Z,17.83
2018-12-01T14:36:58.802Z,14.67
2018-12-01T14:39:27.398Z,16.27
2018-12-01T14:41:55.805Z,16.83
2018-12-01T14:44:24.000Z,15.97
2018-12-01T14:46:52.113Z,16.87
2018-12-01T14:49:20.223Z,17.40
2018-12-01T14:51:48.376Z,17.70
2018-12-01T14:54:16.817Z,14.80
2018-12-01T14:56:45.036Z,17.53
2018-12-01T14:59:13.185Z,18.57
2018-12-01T15:01:41.401Z,16.03
2018-12-01T15:04:09.597Z,20.00
2018-12-01T15:06:37.824Z,15.73
2018-12-01T15:09:08.344Z,20.83
2018-12-01T15:11:36.823Z,13.73
2018-12-01T15:14:05.125Z,18.93
2018-12-01T15:16:34.382Z,19.93
2018-12-01T15:19:02.801Z,21.70
2018-12-01T15:21:31.011Z,20.63
2018-12-01T15:23:59.212Z,21.80
2018-12-01T15:26:27.441Z,17.40
2018-12-01T15:28:55.638Z,20.73
2018-12-01T15:31:23.874Z,22.00
2018-12-01T15:33:52.958Z,19.63
2018-12-01T15:36:21.749Z,18.77
2018-12-01T15:38:50.327Z,19.30
2018-12-01T15:41:18.842Z,21.03
2018-12-01T15:43:47.741Z,20.93
2018-12-01T15:46:16.019Z,19.87
2018-12-01T15:48:44.320Z,22.50
2018-12-01T15:51:12.488Z,21.07
2018-12-01T15:53:40.609Z,17.90
2018-12-01T15:56:08.791Z,18.77
2018-12-01T15:58:37.009Z,18.47
2018-12-01T16:01:05.155Z,20.63
2018-12-01T16:03:34.052Z,21.03
2018-12-01T16:06:02.200Z,21.10
2018-12-01T16:08:30.450Z,19.03
2018-12-01T16:10:58.596Z,21.73
2018-12-01T16:13:27.147Z,21.27
2018-12-01T16:15:59.741Z,19.03
2018-12-01T16:18:27.869Z,24.43
2018-12-01T16:20:56.305Z,21.00
2018-12-01T16:23:24.500Z,24.23
2018-12-01T16:25:52.687Z,25.67
2018-12-01T16:28:20.780Z,21.27
2018-12-01T16:30:48.937Z,24.20
2018-12-01T16:33:20.531Z,24.27
2018-12-01T16:35:49.367Z,27.90
2018-12-01T16:47:18.887Z,28.83
2018-12-01T16:49:47.109Z,31.50
2018-12-01T16:52:15.285Z,30.37
2018-12-01T16:54:43.492Z,39.70
2018-12-01T16:57:11.700Z,33.43
2018-12-01T16:59:39.886Z,36.67
2018-12-01T17:02:08.101Z,37.57
2018-12-01T17:04:36.299Z,31.07
2018-12-01T17:07:04.776Z,27.13
2018-12-01T17:09:32.956Z,28.43
2018-12-01T17:12:01.194Z,30.57
2018-12-01T17:14:29.318Z,29.43
2018-12-01T17:16:57.612Z,33.77
2018-12-01T17:19:25.801Z,41.50
2018-12-01T17:21:54.022Z,36.03
2018-12-01T17:24:22.180Z,36.53
2018-12-01T17:26:50.362Z,34.30
2018-12-01T17:29:18.494Z,29.30
2018-12-01T17:31:46.675Z,39.03
2018-12-01T17:34:14.904Z,39.27
2018-12-01T17:36:43.113Z,43.63
2018-12-01T17:39:11.288Z,39.83
2018-12-01T17:41:39.496Z,45.67
2018-12-01T17:44:09.255Z,48.97
2018-12-01T17:46:37.404Z,43.93
2018-12-01T17:49:06.157Z,46.43
2018-12-01T17:51:34.287Z,51.87
2018-12-01T17:54:17.404Z,50.37
2018-12-01T17:56:45.882Z,54.00
2018-12-01T17:59:14.677Z,50.40
2018-12-01T18:01:42.924Z,58.70
2018-12-01T18:04:11.131Z,58.97
2018-12-01T18:06:39.457Z,64.70
2018-12-01T18:09:08.067Z,108.67
2018-12-01T18:11:36.282Z,132.33
2018-12-01T18:14:04.728Z,86.17
2018-12-01T18:16:33.082Z,210.37
2018-12-01T18:19:01.621Z,133.70
2018-12-01T18:21:29.994Z,98.23
2018-12-01T18:23:58.252Z,137.17
2018-12-01T18:26:26.721Z,107.40
2018-12-01T18:28:54.921Z,117.43
2018-12-01T18:31:24.136Z,123.57
2018-12-01T18:34:00.016Z,94.53
2018-12-01T18:36:28.420Z,108.03
2018-12-01T18:38:56.734Z,202.73
2018-12-01T18:41:24.963Z,83.33
2018-12-01T18:43:53.404Z,137.37
2018-12-01T18:46:21.846Z,63.13
2018-12-01T18:48:50.250Z,98.40
2018-12-01T18:55:03.247Z,92.47
2018-12-01T18:57:32.316Z,119.90
2018-12-01T19:00:02.214Z,124.50
2018-12-01T19:02:31.863Z,119.00
2018-12-01T19:05:00.695Z,107.77
2018-12-01T19:07:29.121Z,78.03
2018-12-01T19:09:58.562Z,70.13
2018-12-01T19:12:27.249Z,82.83
2018-12-01T19:14:55.578Z,78.00
2018-12-01T19:17:24.639Z,90.67
2018-12-01T19:19:55.233Z,112.50
2018-12-01T19:22:29.444Z,65.60
2018-12-01T19:25:02.940Z,97.17
2018-12-01T19:27:35.942Z,96.47
2018-12-01T19:30:05.447Z,63.20
2018-12-01T19:32:33.946Z,76.37
2018-12-01T19:35:02.078Z,51.83
2018-12-01T19:37:30.404Z,109.70
2018-12-01T19:39:58.766Z,107.63
2018-12-01T19:42:26.957Z,76.73
2018-12-01T19:44:55.264Z,83.67
2018-12-01T19:47:24.384Z,78.13
2018-12-01T19:49:52.609Z,61.43
2018-12-01T19:52:20.748Z,89.13
2018-12-01T19:54:48.873Z,54.90
2018-12-01T19:57:17.263Z,58.87
2018-12-01T19:59:45.458Z,47.37
2018-12-01T20:02:13.655Z,63.47
2018-12-01T20:04:41.835Z,92.80
2018-12-01T20:07:10.626Z,53.20
2018-12-01T20:09:40.242Z,70.03
2018-12-01T20:12:09.247Z,83.00
2018-12-01T20:14:38.697Z,114.60
2018-12-01T20:17:10.731Z,120.90
2018-12-01T20:19:41.680Z,82.17
2018-12-01T20:22:11.277Z,87.57
2018-12-01T20:24:41.338Z,78.70
2018-12-01T20:27:10.562Z,76.70
2018-12-01T20:29:39.035Z,85.03
2018-12-01T20:32:07.253Z,64.30
2018-12-01T20:34:35.450Z,68.70
2018-12-01T20:37:05.768Z,59.57
2018-12-01T20:39:35.826Z,101.80
2018-12-01T20:42:04.085Z,94.80
2018-12-01T20:44:32.530Z,75.53
2018-12-01T20:47:00.745Z,82.67
2018-12-01T20:49:28.989Z,83.53
2018-12-01T20:51:57.198Z,102.93
2018-12-01T20:54:34.796Z,85.93
2018-12-01T20:57:04.389Z,62.33
2018-12-01T20:59:32.612Z,74.87
2018-12-01T21:02:00.887Z,75.83
2018-12-01T21:04:29.224Z,68.23
2018-12-01T21:06:57.504Z,55.13
2018-12-01T21:09:25.777Z,93.57
2018-12-01T21:11:53.988Z,58.43
2018-12-01T21:14:22.726Z,78.73
2018-12-01T21:16:50.994Z,54.57
2018-12-01T21:19:19.346Z,69.93
2018-12-01T21:21:47.732Z,64.17
2018-12-01T21:24:16.200Z,59.50
2018-12-01T21:26:44.619Z,79.20
2018-12-01T21:29:13.130Z,57.50
2018-12-01T21:31:41.439Z,73.53
2018-12-01T21:34:09.884Z,79.60
2018-12-01T21:36:38.219Z,64.83
2018-12-01T21:39:07.498Z,53.83
2018-12-01T21:41:35.872Z,56.90
2018-12-01T21:44:04.331Z,61.20
2018-12-01T21:46:32.511Z,49.50
2018-12-01T21:49:00.725Z,60.77
2018-12-01T21:51:29.093Z,52.73
2018-12-01T21:53:57.409Z,62.67
2018-12-01T21:56:25.754Z,47.00
2018-12-01T21:58:54.093Z,65.87
2018-12-01T22:01:22.556Z,66.43
2018-12-01T22:03:51.363Z,42.03
2018-12-01T22:06:19.012Z,67.87
2018-12-01T22:08:47.380Z,62.90
2018-12-01T22:11:15.652Z,48.63
2018-12-01T22:13:43.929Z,50.17
2018-12-01T22:16:12.163Z,42.67
2018-12-01T22:18:40.422Z,62.27
2018-12-01T22:21:08.586Z,64.83
2018-12-01T22:23:36.806Z,49.27
2018-12-01T22:26:05.492Z,44.50
2018-12-01T22:28:35.397Z,48.07
2018-12-01T22:31:01.967Z,49.57
2018-12-01T22:33:30.268Z,34.87
2018-12-01T22:35:58.570Z,47.73
2018-12-01T22:38:26.937Z,40.30
2018-12-01T22:40:55.117Z,56.93
2018-12-01T22:43:23.394Z,48.73
2018-12-01T22:45:51.597Z,41.13
2018-12-01T22:48:20.595Z,66.20
2018-12-01T22:50:49.379Z,47.60
2018-12-01T22:53:17.611Z,37.40
2018-12-01T22:55:46.044Z,63.83
2018-12-01T22:58:15.861Z,65.40
2018-12-01T23:00:47.836Z,54.53
2018-12-01T23:03:16.092Z,56.30
2018-12-01T23:05:44.296Z,39.40
2018-12-01T23:08:13.213Z,49.77
2018-12-01T23:10:41.492Z,56.67
2018-12-01T23:13:09.877Z,56.03
2018-12-01T23:15:38.431Z,47.40
2018-12-01T23:18:08.327Z,50.97
2018-12-01T23:20:36.995Z,50.93
2018-12-01T23:23:05.452Z,50.97
2018-12-01T23:25:33.712Z,42.97
2018-12-01T23:28:01.970Z,39.50
2018-12-01T23:30:30.422Z,37.53
2018-12-01T23:32:59.248Z,50.87
2018-12-01T23:35:27.522Z,36.40
2018-12-01T23:37:55.703Z,40.80
2018-12-01T23:40:24.093Z,33.13
2018-12-01T23:42:52.302Z,33.70
2018-12-01T23:45:20.890Z,32.77
2018-12-01T23:47:49.113Z,35.97
2018-12-01T23:50:22.641Z,31.43
2018-12-01T23:52:51.538Z,32.70
2018-12-01T23:55:19.728Z,43.80
2018-12-01T23:57:47.961Z,42.93
